Time;durP1;ratioP1;P1;durP2;ratioP2;P2;SDS_P1;SDS_P2;PMS_P1;PMS_P2;Temp;Humidity;BMP_temperature;BMP_pressure;BME280_temperature;BME280_humidity;BME280_pressure;Samples;Min_cycle;Max_cycle;Signal;HPM_P1;HPM_P2
2021/10/15 00:01:01;;;;;;;10.93;6.40;;;24.40;48.60;;;;;;4921932;29;20044;-47
2021/10/15 00:03:28;;;;;;;11.38;6.47;;;24.40;48.50;;;;;;4922742;29;20508;-46
2021/10/15 00:05:55;;;;;;;10.18;5.05;;;24.50;49.00;;;;;;4924107;29;20063;-46
2021/10/15 00:08:22;;;;;;;12.40;4.78;;;24.50;49.10;;;;;;4922911;29;20055;-45
2021/10/15 00:10:50;;;;;;;12.52;4.22;;;24.50;48.80;;;;;;4919481;29;20115;-46
2021/10/15 00:13:17;;;;;;;9.77;4.93;;;24.60;48.50;;;;;;4922579;29;20043;-46
2021/10/15 00:15:45;;;;;;;5.55;3.22;;;24.50;48.20;;;;;;4922213;29;20051;-46
2021/10/15 00:18:12;;;;;;;8.10;4.15;;;24.50;48.00;;;;;;4922590;29;20054;-46
2021/10/15 00:20:39;;;;;;;6.45;3.97;;;24.50;47.80;;;;;;4920116;29;20043;-46
2021/10/15 00:23:06;;;;;;;7.70;3.55;;;24.50;47.60;;;;;;4922534;29;20587;-45
2021/10/15 00:25:33;;;;;;;9.45;4.20;;;24.60;47.50;;;;;;4921864;29;20052;-46
2021/10/15 00:28:01;;;;;;;9.52;4.05;;;24.50;47.40;;;;;;4921020;29;20044;-47
2021/10/15 00:30:29;;;;;;;5.82;3.50;;;24.50;47.10;;;;;;4919899;29;20051;-46
2021/10/15 00:32:55;;;;;;;7.35;3.63;;;24.50;47.00;;;;;;4925312;29;20439;-46
2021/10/15 00:35:23;;;;;;;8.52;4.75;;;24.50;46.90;;;;;;4925052;29;20043;-45
2021/10/15 00:37:49;;;;;;;8.57;4.45;;;24.50;46.80;;;;;;4925099;29;20047;-47
2021/10/15 00:40:17;;;;;;;5.47;3.30;;;24.50;46.70;;;;;;4922409;29;20062;-46
2021/10/15 00:42:44;;;;;;;5.50;3.10;;;24.40;46.50;;;;;;4921987;29;20040;-48
2021/10/15 00:45:12;;;;;;;6.25;3.72;;;24.40;46.50;;;;;;4927998;29;20051;-45
2021/10/15 00:47:39;;;;;;;5.05;2.78;;;24.50;46.40;;;;;;4925282;29;20051;-47
2021/10/15 00:50:07;;;;;;;8.98;2.50;;;24.40;46.20;;;;;;4924601;29;20757;-45
2021/10/15 00:52:35;;;;;;;10.00;2.42;;;24.50;46.20;;;;;;4924622;29;20047;-45
2021/10/15 00:55:02;;;;;;;5.50;2.42;;;24.40;46.10;;;;;;4925699;29;20070;-47
2021/10/15 00:57:29;;;;;;;12.82;2.00;;;24.40;46.60;;;;;;4926191;29;20052;-49
2021/10/15 00:59:56;;;;;;;5.38;2.72;;;24.40;45.90;;;;;;4926358;29;20063;-48
2021/10/15 01:02:24;;;;;;;3.15;2.90;;;24.40;45.80;;;;;;4921428;29;20044;-45
2021/10/15 01:04:51;;;;;;;3.30;1.90;;;24.40;45.80;;;;;;4927491;29;20052;-45
2021/10/15 01:07:19;;;;;;;5.90;1.83;;;24.40;45.70;;;;;;4926309;29;20640;-47
2021/10/15 01:09:49;;;;;;;2.35;1.85;;;24.40;45.60;;;;;;4923811;29;20047;-46
2021/10/15 01:12:17;;;;;;;4.22;1.65;;;24.40;45.60;;;;;;4922313;29;20131;-49
2021/10/15 01:14:44;;;;;;;2.20;1.52;;;24.40;45.50;;;;;;4926631;29;20052;-48
2021/10/15 01:17:11;;;;;;;2.40;1.83;;;24.40;45.40;;;;;;4928935;29;20059;-49
2021/10/15 01:19:40;;;;;;;3.83;2.15;;;24.30;45.40;;;;;;4926799;29;20043;-46
2021/10/15 01:22:09;;;;;;;2.72;1.48;;;24.40;45.30;;;;;;4920855;29;20048;-45
2021/10/15 01:24:36;;;;;;;3.67;1.55;;;24.40;45.30;;;;;;4926630;29;20044;-46
2021/10/15 01:27:06;;;;;;;3.03;1.23;;;24.30;45.10;;;;;;4926545;29;20047;-48
2021/10/15 01:29:33;;;;;;;2.72;1.30;;;24.40;45.10;;;;;;4924313;29;20512;-46
2021/10/15 01:32:00;;;;;;;3.97;1.55;;;24.30;45.00;;;;;;4923998;29;20044;-46
2021/10/15 01:34:27;;;;;;;7.00;2.03;;;24.30;44.90;;;;;;4925620;29;20059;-46
2021/10/15 01:36:54;;;;;;;2.58;1.67;;;24.30;44.90;;;;;;4924507;29;20416;-49
2021/10/15 01:39:23;;;;;;;2.90;1.02;;;24.30;44.90;;;;;;4926430;29;20851;-48
2021/10/15 01:41:50;;;;;;;1.60;1.17;;;24.30;44.90;;;;;;4920920;29;20044;-47
2021/10/15 01:44:17;;;;;;;1.60;0.77;;;24.30;44.90;;;;;;4924468;29;20578;-44
2021/10/15 01:46:44;;;;;;;2.03;0.70;;;24.30;44.80;;;;;;4928801;29;20044;-47
2021/10/15 01:49:11;;;;;;;1.95;0.90;;;24.30;44.80;;;;;;4926613;29;20505;-46
2021/10/15 01:51:38;;;;;;;3.60;0.68;;;24.30;44.70;;;;;;4919779;29;20424;-45
2021/10/15 01:54:06;;;;;;;2.60;0.50;;;24.20;44.60;;;;;;4912773;29;20048;-46
2021/10/15 01:56:36;;;;;;;4.75;0.80;;;24.20;44.70;;;;;;4924625;29;20103;-46
2021/10/15 01:59:05;;;;;;;1.77;0.63;;;24.20;44.60;;;;;;4927931;29;20146;-45
2021/10/15 02:01:33;;;;;;;1.23;0.68;;;24.10;44.60;;;;;;4923459;29;20056;-45
2021/10/15 02:04:00;;;;;;;0.95;0.73;;;24.10;44.50;;;;;;4926195;29;20046;-46
2021/10/15 02:06:27;;;;;;;2.28;0.63;;;24.10;44.50;;;;;;4929653;29;20055;-45
2021/10/15 02:08:54;;;;;;;2.45;1.42;;;24.10;44.50;;;;;;4930817;29;20456;-47
2021/10/15 02:11:21;;;;;;;0.60;0.60;;;24.10;44.40;;;;;;4922306;29;20047;-46
2021/10/15 02:13:49;;;;;;;0.98;0.47;;;24.10;44.30;;;;;;4927152;29;20055;-45
2021/10/15 02:16:16;;;;;;;1.70;0.60;;;24.10;44.30;;;;;;4929814;29;20979;-46
2021/10/15 02:18:44;;;;;;;1.10;0.43;;;24.10;44.30;;;;;;4927093;29;20044;-46
2021/10/15 02:21:11;;;;;;;2.88;0.82;;;24.10;44.30;;;;;;4926247;29;20487;-46
2021/10/15 02:23:38;;;;;;;3.60;0.60;;;24.10;44.30;;;;;;4929319;29;20055;-45
2021/10/15 02:26:05;;;;;;;1.33;0.45;;;24.10;44.30;;;;;;4925260;29;20055;-45
2021/10/15 02:28:32;;;;;;;0.60;0.60;;;24.00;44.30;;;;;;4924589;29;20055;-47
2021/10/15 02:31:00;;;;;;;1.10;0.70;;;24.00;44.30;;;;;;4919081;29;20058;-45
2021/10/15 02:33:27;;;;;;;0.30;0.20;;;24.00;44.90;;;;;;4925785;29;20060;-46
2021/10/15 02:35:57;;;;;;;2.45;0.52;;;24.00;44.30;;;;;;4909922;29;20047;-46
2021/10/15 02:38:23;;;;;;;0.60;0.55;;;24.00;44.30;;;;;;4925403;29;20054;-46
2021/10/15 02:40:50;;;;;;;3.25;0.40;;;23.90;44.20;;;;;;4920783;29;20055;-46
2021/10/15 02:43:17;;;;;;;0.63;0.60;;;24.00;44.30;;;;;;4924245;29;20199;-46
2021/10/15 02:45:45;;;;;;;0.40;0.35;;;24.00;44.30;;;;;;4923525;29;20528;-45
2021/10/15 02:48:13;;;;;;;0.88;0.32;;;23.90;44.20;;;;;;4926300;29;20135;-47
2021/10/15 02:50:40;;;;;;;1.75;0.77;;;23.90;44.30;;;;;;4921315;29;20806;-47
2021/10/15 02:53:07;;;;;;;0.65;0.30;;;23.90;44.30;;;;;;4923995;29;20111;-46
2021/10/15 02:55:34;;;;;;;2.45;0.60;;;23.90;44.40;;;;;;4926211;29;20329;-46
2021/10/15 02:58:01;;;;;;;0.65;0.50;;;23.90;44.40;;;;;;4924317;29;21344;-46
2021/10/15 03:00:28;;;;;;;3.17;0.70;;;23.80;44.40;;;;;;4922858;29;20043;-48
2021/10/15 03:02:55;;;;;;;1.27;0.57;;;23.90;44.50;;;;;;4928207;29;20051;-48
2021/10/15 03:05:24;;;;;;;0.55;0.50;;;23.90;44.50;;;;;;4929966;29;20094;-47
2021/10/15 03:07:51;;;;;;;2.17;0.57;;;23.90;44.50;;;;;;4926851;29;20048;-47
2021/10/15 03:10:18;;;;;;;2.45;0.70;;;23.80;44.40;;;;;;4924025;29;20055;-46
2021/10/15 03:12:45;;;;;;;0.88;0.57;;;23.80;44.40;;;;;;4922736;29;20054;-45
2021/10/15 03:15:12;;;;;;;2.33;0.52;;;23.80;44.40;;;;;;4926806;29;20052;-46
2021/10/15 03:17:39;;;;;;;0.30;0.30;;;23.80;44.50;;;;;;4929216;29;20054;-46
2021/10/15 03:20:07;;;;;;;2.75;0.45;;;23.80;44.50;;;;;;4927666;29;20048;-48
2021/10/15 03:22:36;;;;;;;1.15;0.68;;;23.80;44.60;;;;;;4922974;29;20052;-45
2021/10/15 03:25:03;;;;;;;0.60;0.40;;;23.70;44.50;;;;;;4922941;29;20051;-49
2021/10/15 03:27:30;;;;;;;1.23;0.50;;;23.70;44.50;;;;;;4925637;29;20106;-48
2021/10/15 03:29:57;;;;;;;0.50;0.35;;;23.70;44.50;;;;;;4926668;29;20225;-46
2021/10/15 03:32:24;;;;;;;2.42;0.52;;;23.70;44.50;;;;;;4920087;29;20047;-49
2021/10/15 03:34:51;;;;;;;1.45;0.38;;;23.70;44.50;;;;;;4927668;29;20117;-45
2021/10/15 03:37:18;;;;;;;0.68;0.43;;;23.70;44.50;;;;;;4925923;29;20059;-45
2021/10/15 03:39:46;;;;;;;1.05;0.65;;;23.70;44.40;;;;;;4925246;29;20745;-47
2021/10/15 03:42:13;;;;;;;0.40;0.32;;;23.70;44.40;;;;;;4921479;29;20059;-47
2021/10/15 03:44:40;;;;;;;0.98;0.47;;;23.70;44.40;;;;;;4928525;29;20055;-49
2021/10/15 03:47:07;;;;;;;0.57;0.20;;;23.70;44.40;;;;;;4928980;29;20059;-45
2021/10/15 03:49:34;;;;;;;1.30;0.35;;;23.60;44.30;;;;;;4926475;29;20051;-46
2021/10/15 03:52:01;;;;;;;1.55;0.38;;;23.70;44.30;;;;;;4920526;29;20123;-45
2021/10/15 03:54:28;;;;;;;0.82;0.20;;;23.60;44.30;;;;;;4926091;29;20043;-46
2021/10/15 03:56:57;;;;;;;0.57;0.57;;;23.60;44.30;;;;;;4927174;29;20055;-46
2021/10/15 03:59:24;;;;;;;1.30;0.60;;;23.70;44.30;;;;;;4928181;29;20044;-45
2021/10/15 04:01:51;;;;;;;1.02;0.40;;;23.60;44.20;;;;;;4922500;29;20058;-46
2021/10/15 04:04:18;;;;;;;3.13;0.30;;;23.60;44.20;;;;;;4925619;29;20056;-45
2021/10/15 04:06:45;;;;;;;1.63;0.60;;;23.60;44.20;;;;;;4926798;29;20079;-47
2021/10/15 04:09:12;;;;;;;0.80;0.25;;;23.60;44.20;;;;;;4925757;29;20039;-45
2021/10/15 04:11:39;;;;;;;0.30;0.20;;;23.50;44.10;;;;;;4920380;29;20070;-45
2021/10/15 04:14:07;;;;;;;0.68;0.68;;;23.60;44.20;;;;;;4927409;29;20461;-46
2021/10/15 04:16:34;;;;;;;0.30;0.20;;;23.50;44.10;;;;;;4926753;28;20058;-46
2021/10/15 04:19:02;;;;;;;0.30;0.20;;;23.50;44.10;;;;;;4924323;29;20047;-45
2021/10/15 04:21:29;;;;;;;1.05;0.30;;;23.50;44.10;;;;;;4921941;29;20528;-45
2021/10/15 04:23:56;;;;;;;0.50;0.40;;;23.50;44.20;;;;;;4925757;29;20050;-46
2021/10/15 04:26:23;;;;;;;1.02;0.20;;;23.50;44.20;;;;;;4924297;29;20050;-45
2021/10/15 04:28:50;;;;;;;1.52;0.47;;;23.50;44.20;;;;;;4930404;29;20054;-49
2021/10/15 04:31:18;;;;;;;2.20;0.30;;;23.50;44.10;;;;;;4913679;29;20048;-47
2021/10/15 04:33:45;;;;;;;1.88;0.45;;;23.50;44.10;;;;;;4922971;29;20547;-46
2021/10/15 04:36:12;;;;;;;0.85;0.20;;;23.50;44.10;;;;;;4926694;29;20106;-45
2021/10/15 04:38:39;;;;;;;0.93;0.38;;;23.50;44.10;;;;;;4926754;29;20163;-46
2021/10/15 04:41:06;;;;;;;2.95;0.43;;;23.50;44.10;;;;;;4919029;29;20051;-45
2021/10/15 04:43:33;;;;;;;0.40;0.38;;;23.40;44.00;;;;;;4926974;29;20055;-45
2021/10/15 04:46:00;;;;;;;1.25;0.40;;;23.40;44.00;;;;;;4926819;29;20045;-46
2021/10/15 04:48:29;;;;;;;3.08;0.60;;;23.40;44.00;;;;;;4927127;29;20042;-47
2021/10/15 04:50:56;;;;;;;0.68;0.20;;;23.40;44.00;;;;;;4922270;29;20052;-46
2021/10/15 04:53:23;;;;;;;0.30;0.20;;;23.40;44.10;;;;;;4915534;29;20099;-46
2021/10/15 04:55:50;;;;;;;1.85;0.50;;;23.40;44.10;;;;;;4923323;29;20043;-44
2021/10/15 04:58:17;;;;;;;0.82;0.30;;;23.40;44.10;;;;;;4926569;29;20047;-44
2021/10/15 05:00:45;;;;;;;0.63;0.43;;;23.30;44.00;;;;;;4920371;29;20067;-45
2021/10/15 05:03:12;;;;;;;1.20;0.60;;;23.40;44.00;;;;;;4927145;29;20051;-46
2021/10/15 05:05:42;;;;;;;0.38;0.38;;;23.40;44.00;;;;;;4926073;29;20159;-46
2021/10/15 05:08:10;;;;;;;0.50;0.20;;;23.40;44.00;;;;;;4924219;29;20051;-46
2021/10/15 05:10:41;;;;;;;1.52;0.63;;;23.30;43.90;;;;;;4920995;29;20050;-47
2021/10/15 05:13:08;;;;;;;0.70;0.30;;;23.30;43.90;;;;;;4922793;29;20457;-46
2021/10/15 05:15:35;;;;;;;0.50;0.30;;;23.40;43.90;;;;;;4923498;29;20091;-45
2021/10/15 05:18:02;;;;;;;6.82;0.70;;;23.30;43.90;;;;;;4926035;29;20054;-46
2021/10/15 05:20:29;;;;;;;0.80;0.30;;;23.30;43.90;;;;;;4922640;29;20416;-49
2021/10/15 05:22:58;;;;;;;1.85;0.45;;;23.30;43.90;;;;;;4921193;29;20059;-47
2021/10/15 05:25:25;;;;;;;2.58;0.20;;;23.30;43.90;;;;;;4922899;29;20054;-46
2021/10/15 05:27:52;;;;;;;0.77;0.25;;;23.30;43.90;;;;;;4925320;29;20044;-45
2021/10/15 05:30:19;;;;;;;0.65;0.60;;;23.30;43.90;;;;;;4926862;29;20520;-46
2021/10/15 05:32:46;;;;;;;1.35;0.40;;;23.30;43.90;;;;;;4926267;29;20043;-46
2021/10/15 05:35:13;;;;;;;0.32;0.25;;;23.30;43.90;;;;;;4927814;29;20044;-46
2021/10/15 05:37:41;;;;;;;0.95;0.30;;;23.30;44.00;;;;;;4927867;29;20047;-45
2021/10/15 05:40:10;;;;;;;1.20;0.40;;;23.30;43.90;;;;;;4928374;29;20050;-46
2021/10/15 05:42:38;;;;;;;3.50;0.63;;;23.20;43.80;;;;;;4923553;29;20213;-45
2021/10/15 05:45:06;;;;;;;0.80;0.40;;;23.20;43.80;;;;;;4929179;29;21446;-45
2021/10/15 05:47:35;;;;;;;0.70;0.50;;;23.30;43.90;;;;;;4927671;29;20075;-45
2021/10/15 05:50:02;;;;;;;2.00;1.00;;;23.30;43.90;;;;;;4927707;29;20046;-44
2021/10/15 05:52:33;;;;;;;0.75;0.40;;;23.20;43.80;;;;;;4922610;29;20048;-45
2021/10/15 05:55:06;;;;;;;1.30;0.38;;;23.30;43.80;;;;;;4926902;29;20043;-44
2021/10/15 06:00:19;;;;;;;3.55;0.30;;;23.20;43.80;;;;;;4925038;29;20135;-46
2021/10/15 06:02:46;;;;;;;0.95;0.30;;;23.10;43.80;;;;;;4926765;29;20046;-44
2021/10/15 06:14:17;;;;;;;0.82;0.75;;;23.10;44.60;;;;;;5079445;28;20072;-44
2021/10/15 06:16:48;;;;;;;0.73;0.60;;;23.10;44.80;;;;;;5092160;28;20054;-45
2021/10/15 06:19:17;;;;;;;1.30;0.63;;;23.00;44.90;;;;;;5086777;28;20492;-44
2021/10/15 06:21:44;;;;;;;1.45;0.63;;;23.00;45.20;;;;;;5083313;28;20033;-46
2021/10/15 06:24:12;;;;;;;0.93;0.52;;;22.90;45.60;;;;;;5086406;28;20051;-45
2021/10/15 06:26:40;;;;;;;3.15;0.93;;;22.80;45.80;;;;;;5088405;28;20527;-45
2021/10/15 06:29:07;;;;;;;0.93;0.65;;;22.80;46.00;;;;;;5083075;28;20118;-46
2021/10/15 06:31:34;;;;;;;1.05;0.88;;;22.70;46.10;;;;;;5082962;28;20055;-45
2021/10/15 06:34:02;;;;;;;1.83;0.85;;;22.70;46.30;;;;;;5083875;28;20044;-45
2021/10/15 06:36:29;;;;;;;1.38;0.40;;;22.60;46.50;;;;;;5084964;28;20052;-46
2021/10/15 06:38:56;;;;;;;1.25;1.00;;;22.60;46.70;;;;;;5086518;28;20044;-49
2021/10/15 06:41:25;;;;;;;4.25;0.90;;;22.50;46.80;;;;;;5076782;28;20106;-44
2021/10/15 06:43:52;;;;;;;2.22;0.60;;;22.50;47.00;;;;;;5085231;28;20471;-44
2021/10/15 06:46:21;;;;;;;1.38;0.47;;;22.50;47.10;;;;;;5079183;28;20039;-45
2021/10/15 06:48:49;;;;;;;2.58;0.90;;;22.40;47.20;;;;;;5081131;28;20043;-44
2021/10/15 06:51:16;;;;;;;1.80;0.50;;;22.40;47.40;;;;;;5078947;28;20063;-45
2021/10/15 06:53:43;;;;;;;0.90;0.20;;;22.40;47.50;;;;;;5075991;28;20385;-44
2021/10/15 06:56:10;;;;;;;2.08;0.40;;;22.30;47.60;;;;;;5079770;28;20067;-46
2021/10/15 06:58:39;;;;;;;1.90;0.82;;;22.30;47.70;;;;;;5077228;28;20416;-47
2021/10/15 07:01:06;;;;;;;5.70;0.40;;;22.30;47.80;;;;;;5069645;28;20064;-46
2021/10/15 07:03:33;;;;;;;2.38;0.40;;;22.20;48.50;;;;;;5069268;28;20053;-45
2021/10/15 07:06:01;;;;;;;0.65;0.50;;;22.20;47.90;;;;;;5068441;28;20111;-45
2021/10/15 07:08:28;;;;;;;2.67;1.00;;;22.10;48.00;;;;;;5070499;28;20051;-44
2021/10/15 07:10:55;;;;;;;1.73;0.32;;;22.20;48.10;;;;;;5071479;28;20578;-52
2021/10/15 07:13:23;;;;;;;0.65;0.20;;;22.10;48.20;;;;;;5067710;28;20040;-47
2021/10/15 07:15:51;;;;;;;8.07;0.63;;;22.10;48.60;;;;;;5063637;28;20064;-48
2021/10/15 07:18:18;;;;;;;4.00;0.30;;;22.10;48.90;;;;;;5063700;28;20093;-52
2021/10/15 07:20:46;;;;;;;12.98;0.70;;;22.00;48.80;;;;;;5063073;28;20045;-48
2021/10/15 07:23:15;;;;;;;5.47;0.75;;;22.10;48.90;;;;;;5075101;28;20044;-51
2021/10/15 07:25:42;;;;;;;6.25;0.73;;;22.00;48.90;;;;;;5072965;28;20483;-48
2021/10/15 07:28:10;;;;;;;9.77;1.48;;;22.00;48.90;;;;;;5067001;28;20046;-49
2021/10/15 07:30:37;;;;;;;6.60;1.23;;;22.00;48.90;;;;;;5073156;28;20047;-49
2021/10/15 07:33:06;;;;;;;0.73;0.73;;;22.00;48.90;;;;;;5055114;28;20068;-50
2021/10/15 07:35:34;;;;;;;2.70;0.40;;;22.00;48.90;;;;;;5060734;28;20048;-51
2021/10/15 07:38:01;;;;;;;6.50;0.98;;;22.00;49.10;;;;;;5055381;28;20064;-48
2021/10/15 07:40:28;;;;;;;5.68;1.02;;;22.00;49.20;;;;;;5053340;28;20043;-49
2021/10/15 07:42:55;;;;;;;6.00;0.50;;;22.00;49.20;;;;;;5051169;28;20143;-48
2021/10/15 07:45:25;;;;;;;3.92;0.77;;;21.90;49.20;;;;;;5055910;28;20068;-47
2021/10/15 07:47:52;;;;;;;2.88;0.77;;;21.90;49.20;;;;;;5054750;28;20052;-46
2021/10/15 07:50:21;;;;;;;2.30;0.75;;;21.90;49.20;;;;;;5050928;28;20037;-49
2021/10/15 07:52:49;;;;;;;6.03;1.02;;;21.90;49.10;;;;;;5058736;28;20112;-47
2021/10/15 07:55:16;;;;;;;4.47;1.88;;;21.90;49.10;;;;;;5052992;28;20051;-48
2021/10/15 07:57:43;;;;;;;3.35;0.40;;;21.90;49.10;;;;;;5064301;28;20037;-45
2021/10/15 08:00:12;;;;;;;4.55;0.60;;;21.90;49.00;;;;;;5065471;28;20048;-49
2021/10/15 08:02:40;;;;;;;6.75;0.73;;;21.90;49.00;;;;;;5059327;28;20052;-45
2021/10/15 08:05:08;;;;;;;5.30;1.92;;;21.90;48.90;;;;;;5055355;28;20041;-48
2021/10/15 08:07:36;;;;;;;4.75;0.85;;;21.90;48.90;;;;;;5036601;28;20050;-46
2021/10/15 08:10:03;;;;;;;1.02;0.55;;;21.90;48.80;;;;;;5063944;28;20442;-46
2021/10/15 08:12:30;;;;;;;3.70;0.60;;;21.90;48.80;;;;;;5054558;28;20122;-46
2021/10/15 08:14:58;;;;;;;2.50;0.70;;;21.90;48.70;;;;;;5054292;28;20043;-46
2021/10/15 08:17:25;;;;;;;0.75;0.43;;;21.90;49.20;;;;;;5056723;28;20068;-46
2021/10/15 08:19:52;;;;;;;1.35;0.52;;;21.90;48.60;;;;;;5057187;28;20040;-47
2021/10/15 08:22:19;;;;;;;1.20;0.90;;;21.90;48.60;;;;;;5053662;28;20048;-49
2021/10/15 08:24:48;;;;;;;4.95;2.13;;;21.90;48.50;;;;;;5061804;28;20052;-47
2021/10/15 08:27:15;;;;;;;4.80;0.90;;;21.90;48.50;;;;;;5055980;28;20138;-49
2021/10/15 08:29:42;;;;;;;8.73;1.83;;;21.90;48.50;;;;;;5058814;28;20052;-48
2021/10/15 08:32:09;;;;;;;1.98;0.68;;;21.90;48.40;;;;;;5052342;28;20567;-47
2021/10/15 08:34:37;;;;;;;0.73;0.70;;;21.90;48.40;;;;;;5055358;28;20118;-46
2021/10/15 08:37:05;;;;;;;2.90;0.73;;;21.90;48.90;;;;;;5052587;28;20090;-47
2021/10/15 08:39:32;;;;;;;5.53;1.02;;;21.90;48.30;;;;;;5049072;28;20076;-46
2021/10/15 08:42:01;;;;;;;2.13;0.63;;;21.90;48.30;;;;;;5056235;28;20053;-46
2021/10/15 08:44:36;;;;;;;2.13;0.70;;;21.90;48.30;;;;;;5057018;28;20043;-46
2021/10/15 08:47:03;;;;;;;2.58;1.02;;;21.90;48.20;;;;;;5051977;28;20044;-46
2021/10/15 08:49:31;;;;;;;4.60;1.13;;;21.90;48.20;;;;;;5037520;28;20055;-47
2021/10/15 08:51:58;;;;;;;1.63;0.75;;;21.90;48.10;;;;;;5050799;28;20123;-49
2021/10/15 08:54:25;;;;;;;4.55;0.75;;;21.90;48.10;;;;;;5064178;28;20032;-46
2021/10/15 08:56:55;;;;;;;2.75;1.45;;;21.90;48.10;;;;;;5053640;28;20398;-49
2021/10/15 08:59:36;;;;;;;2.35;0.77;;;22.00;48.10;;;;;;5058080;28;20044;-46
2021/10/15 09:02:11;;;;;;;3.35;0.70;;;22.00;48.00;;;;;;5057573;28;20068;-45
2021/10/15 09:04:44;;;;;;;4.68;0.60;;;22.00;48.00;;;;;;5033999;28;20072;-47
2021/10/15 09:07:12;;;;;;;3.15;0.77;;;22.00;47.90;;;;;;5051323;28;20061;-46
2021/10/15 09:09:39;;;;;;;3.75;0.75;;;22.00;47.90;;;;;;5051509;28;20034;-46
2021/10/15 09:12:11;;;;;;;1.85;0.80;;;22.00;47.80;;;;;;5059363;28;20076;-46
2021/10/15 09:14:40;;;;;;;1.33;0.70;;;22.00;47.80;;;;;;5052892;28;20113;-47
2021/10/15 09:17:09;;;;;;;3.70;0.47;;;22.00;47.80;;;;;;5055572;28;20047;-52
2021/10/15 09:19:40;;;;;;;3.03;1.30;;;22.00;47.70;;;;;;5052366;28;20033;-46
2021/10/15 09:22:13;;;;;;;2.72;0.88;;;22.00;47.70;;;;;;5052984;28;20052;-53
2021/10/15 09:24:43;;;;;;;5.93;0.98;;;22.00;47.60;;;;;;5060424;28;20052;-48
2021/10/15 09:27:16;;;;;;;2.60;1.20;;;22.00;47.60;;;;;;5055603;28;20156;-50
2021/10/15 09:29:47;;;;;;;0.93;0.40;;;22.00;47.50;;;;;;5054646;28;20051;-47
2021/10/15 09:32:15;;;;;;;2.50;1.00;;;22.00;47.50;;;;;;5053928;28;20048;-47
2021/10/15 09:34:42;;;;;;;4.43;1.08;;;22.00;47.50;;;;;;5054327;28;20037;-50
2021/10/15 09:37:15;;;;;;;1.45;0.85;;;22.00;47.40;;;;;;5054010;28;20504;-51
2021/10/15 09:39:42;;;;;;;3.35;1.00;;;22.10;47.40;;;;;;5047348;28;20399;-48
2021/10/15 09:42:23;;;;;;;1.45;0.50;;;22.10;47.30;;;;;;5051567;28;20136;-48
2021/10/15 09:44:52;;;;;;;1.05;0.93;;;22.10;47.30;;;;;;5053625;28;20048;-47
2021/10/15 09:47:23;;;;;;;1.05;0.95;;;22.10;47.20;;;;;;5050920;28;20049;-48
2021/10/15 09:49:56;;;;;;;4.43;1.00;;;22.10;47.20;;;;;;5054653;28;20064;-48
2021/10/15 09:52:36;;;;;;;1.15;0.63;;;22.10;47.10;;;;;;5052316;28;20059;-46
2021/10/15 09:55:16;;;;;;;5.45;1.02;;;22.20;47.70;;;;;;5049479;28;20408;-46
2021/10/15 09:57:45;;;;;;;3.60;0.50;;;22.20;47.10;;;;;;5046646;28;20040;-46
2021/10/15 10:00:16;;;;;;;2.58;1.33;;;22.20;47.10;;;;;;5051783;28;20095;-47
2021/10/15 10:02:43;;;;;;;2.55;1.13;;;22.20;47.00;;;;;;5066833;28;20036;-46
2021/10/15 10:05:13;;;;;;;3.90;0.82;;;22.20;46.90;;;;;;5055766;28;20540;-46
2021/10/15 10:07:42;;;;;;;3.22;1.00;;;22.30;46.90;;;;;;5052737;28;20481;-48
2021/10/15 10:10:11;;;;;;;2.88;1.30;;;22.30;46.80;;;;;;5051159;28;20455;-46
2021/10/15 10:12:41;;;;;;;1.77;1.35;;;22.30;46.70;;;;;;5028813;28;20056;-50
2021/10/15 10:15:10;;;;;;;1.15;0.70;;;22.30;46.60;;;;;;5050586;28;20044;-46
2021/10/15 10:17:44;;;;;;;2.50;1.42;;;22.40;46.60;;;;;;5052291;28;20052;-46
2021/10/15 10:20:15;;;;;;;2.38;1.08;;;22.40;46.50;;;;;;5051072;28;20052;-47
2021/10/15 10:22:50;;;;;;;1.58;0.52;;;22.40;46.40;;;;;;5054571;28;20037;-47
2021/10/15 10:25:23;;;;;;;5.65;1.48;;;22.40;46.40;;;;;;5060555;28;20143;-46
2021/10/15 10:27:53;;;;;;;1.92;0.70;;;22.40;46.30;;;;;;5051913;28;20051;-46
2021/10/15 10:30:36;;;;;;;3.60;0.50;;;22.50;46.30;;;;;;5049344;28;20045;-49
2021/10/15 10:33:05;;;;;;;2.08;0.93;;;22.50;46.10;;;;;;5051382;28;20552;-47
2021/10/15 10:35:33;;;;;;;3.72;0.65;;;22.50;46.10;;;;;;5056557;28;20120;-49
2021/10/15 10:38:27;;;;;;;1.17;0.85;;;22.50;46.10;;;;;;5050745;28;20049;-46
2021/10/15 10:41:13;;;;;;;1.58;0.60;;;22.50;45.90;;;;;;5055111;28;20036;-47
2021/10/15 10:44:09;;;;;;;1.65;0.57;;;22.50;45.90;;;;;;5053982;28;20144;-49
2021/10/15 10:46:37;;;;;;;1.23;0.45;;;22.60;45.90;;;;;;5050823;28;20032;-48
2021/10/15 10:49:18;;;;;;;3.22;1.33;;;22.60;45.90;;;;;;5048878;28;20044;-46
2021/10/15 10:52:11;;;;;;;5.93;0.60;;;22.60;45.80;;;;;;5046908;28;20461;-47
2021/10/15 10:54:39;;;;;;;2.05;1.02;;;22.60;45.80;;;;;;5062121;28;20041;-46
2021/10/15 10:57:18;;;;;;;1.10;0.80;;;22.60;45.80;;;;;;5058274;28;20037;-45
2021/10/15 10:59:46;;;;;;;1.02;0.50;;;22.70;45.70;;;;;;5060210;28;20045;-46
2021/10/15 11:02:16;;;;;;;2.30;0.63;;;22.70;45.70;;;;;;5054176;28;20561;-51
2021/10/15 11:04:56;;;;;;;1.50;0.73;;;22.70;45.70;;;;;;5057327;28;20459;-47
2021/10/15 11:07:30;;;;;;;1.95;0.68;;;22.70;45.60;;;;;;5053892;28;20125;-51
2021/10/15 11:10:01;;;;;;;0.95;0.40;;;22.80;45.50;;;;;;5054622;28;20041;-47
2021/10/15 11:13:06;;;;;;;3.58;0.70;;;22.80;45.50;;;;;;5051159;28;20049;-46
2021/10/15 11:15:34;;;;;;;1.90;0.77;;;22.80;45.40;;;;;;5029671;28;20041;-46
2021/10/15 11:18:02;;;;;;;2.17;0.40;;;22.90;45.40;;;;;;5061096;28;20535;-47
2021/10/15 11:20:32;;;;;;;2.28;1.00;;;22.90;45.30;;;;;;5053873;28;20044;-46
2021/10/15 11:23:01;;;;;;;1.23;1.13;;;23.00;45.20;;;;;;5059435;28;20032;-47
2021/10/15 11:25:31;;;;;;;1.02;0.32;;;23.00;45.70;;;;;;5064530;28;20057;-47
2021/10/15 11:27:59;;;;;;;1.73;1.17;;;23.00;45.10;;;;;;5054995;28;20036;-47
2021/10/15 11:30:29;;;;;;;2.38;0.82;;;23.10;45.10;;;;;;5051301;28;21005;-46
2021/10/15 11:32:57;;;;;;;1.65;1.00;;;23.10;45.00;;;;;;5063487;28;20114;-49
2021/10/15 11:35:25;;;;;;;1.08;0.70;;;23.10;44.90;;;;;;5062343;28;20511;-50
2021/10/15 11:37:57;;;;;;;2.40;0.40;;;23.20;44.90;;;;;;5061745;28;20572;-47
2021/10/15 11:40:27;;;;;;;1.20;0.40;;;23.20;44.80;;;;;;5054405;28;20037;-52
2021/10/15 11:42:55;;;;;;;1.88;0.22;;;23.20;44.70;;;;;;5053342;28;20037;-46
2021/10/15 11:45:24;;;;;;;1.27;0.88;;;23.20;44.60;;;;;;5051905;28;20078;-47
2021/10/15 11:48:01;;;;;;;2.35;0.38;;;23.30;44.70;;;;;;5057082;28;20052;-47
2021/10/15 11:50:34;;;;;;;3.28;0.90;;;23.30;44.60;;;;;;5058135;28;20049;-46
2021/10/15 11:53:03;;;;;;;1.48;0.60;;;23.30;44.50;;;;;;5056902;28;20052;-45
2021/10/15 11:55:32;;;;;;;2.70;1.20;;;23.30;44.50;;;;;;5063293;28;20036;-49
2021/10/15 11:58:22;;;;;;;1.58;0.63;;;23.30;44.40;;;;;;5051767;28;20076;-47
2021/10/15 12:01:02;;;;;;;2.15;0.40;;;23.40;44.30;;;;;;5053859;28;20040;-46
2021/10/15 12:03:31;;;;;;;1.23;0.45;;;23.50;44.40;;;;;;5050413;28;20045;-45
2021/10/15 12:06:13;;;;;;;1.17;0.40;;;23.40;44.30;;;;;;5057550;28;20048;-46
2021/10/15 12:08:44;;;;;;;1.42;0.77;;;23.40;44.20;;;;;;5055214;28;20053;-46
2021/10/15 12:11:42;;;;;;;0.60;0.50;;;23.50;44.30;;;;;;5052435;28;20520;-47
2021/10/15 12:14:12;;;;;;;0.60;0.22;;;23.50;44.20;;;;;;5057202;28;20041;-50
2021/10/15 12:16:47;;;;;;;0.93;0.63;;;23.50;44.20;;;;;;5055891;28;20062;-48
2021/10/15 12:19:21;;;;;;;2.58;0.40;;;23.50;44.20;;;;;;5054502;28;20525;-47
2021/10/15 12:21:50;;;;;;;1.20;0.40;;;23.50;44.10;;;;;;5047945;28;20572;-47
2021/10/15 12:24:28;;;;;;;0.68;0.40;;;23.50;44.10;;;;;;5064596;28;20157;-47
2021/10/15 12:27:07;;;;;;;2.88;0.43;;;23.60;44.10;;;;;;5053910;28;20048;-46
2021/10/15 12:29:37;;;;;;;2.85;0.40;;;23.60;44.10;;;;;;5054959;28;20417;-46
2021/10/15 12:32:21;;;;;;;1.10;0.45;;;23.60;44.10;;;;;;5055647;28;20037;-46
2021/10/15 12:35:04;;;;;;;0.75;0.30;;;23.60;44.10;;;;;;5051397;28;20041;-46
2021/10/15 12:37:46;;;;;;;0.30;0.30;;;23.70;44.10;;;;;;5052770;28;20086;-50
2021/10/15 12:40:28;;;;;;;0.65;0.63;;;23.70;44.10;;;;;;5050567;28;20467;-46
2021/10/15 12:43:09;;;;;;;0.50;0.20;;;23.70;44.10;;;;;;5050045;28;20094;-51
2021/10/15 12:45:39;;;;;;;1.00;0.25;;;23.70;44.20;;;;;;5030903;28;20041;-50
2021/10/15 12:48:08;;;;;;;1.75;0.68;;;23.70;44.10;;;;;;5057246;28;20195;-50
2021/10/15 12:50:37;;;;;;;1.92;0.32;;;23.80;44.10;;;;;;5057028;28;20532;-49
2021/10/15 12:53:12;;;;;;;1.27;0.55;;;23.80;44.00;;;;;;5056075;28;20036;-49
2021/10/15 12:55:50;;;;;;;3.55;0.93;;;23.80;44.00;;;;;;5061730;28;20037;-49
2021/10/15 12:58:18;;;;;;;0.30;0.30;;;23.90;44.00;;;;;;5047610;28;20049;-48
2021/10/15 13:00:50;;;;;;;3.15;0.35;;;23.90;44.00;;;;;;5053463;28;20029;-46
2021/10/15 13:03:18;;;;;;;2.38;0.20;;;23.90;43.90;;;;;;5051465;28;20133;-45
2021/10/15 13:05:45;;;;;;;0.28;0.28;;;23.90;43.90;;;;;;5057304;28;20127;-47
2021/10/15 13:08:14;;;;;;;0.63;0.20;;;23.90;43.90;;;;;;5058759;28;20055;-48